createdAt,value
2022-10-19T00:01:22.674Z,97859.16
2022-10-19T00:03:52.563Z,97850.44
2022-10-19T00:06:25.556Z,97847.22
2022-10-19T00:08:58.132Z,97848.81
2022-10-19T00:11:25.157Z,97850.50
2022-10-19T00:13:53.429Z,97850.56
2022-10-19T00:16:21.343Z,97841.75
2022-10-19T00:18:47.946Z,97844.63
2022-10-19T00:21:16.728Z,97837.88
2022-10-19T00:23:44.427Z,97841.09
2022-10-19T00:26:11.865Z,97835.88
2022-10-19T00:28:38.471Z,97831.13
2022-10-19T00:31:07.267Z,97831.53
2022-10-19T00:33:34.139Z,97833.13
2022-10-19T00:36:01.331Z,97827.22
2022-10-19T00:38:28.166Z,97825.72
2022-10-19T00:40:54.727Z,97829.25
2022-10-19T00:43:27.267Z,97820.94
2022-10-19T00:45:53.930Z,97822.97
2022-10-19T00:48:29.623Z,97818.59
2022-10-19T00:50:57.358Z,97804.78
2022-10-19T00:53:26.360Z,97802.38
2022-10-19T00:55:53.528Z,97797.56
2022-10-19T00:58:20.178Z,97797.56
2022-10-19T01:00:46.823Z,97803.06
2022-10-19T01:03:14.407Z,97797.13
2022-10-19T01:05:41.454Z,97788.81
2022-10-19T01:08:10.038Z,97795.13
2022-10-19T01:10:51.555Z,97803.09
2022-10-19T01:13:33.303Z,97790.44
2022-10-19T01:16:19.595Z,97788.88
2022-10-19T01:19:12.680Z,97785.72
2022-10-19T01:21:57.744Z,97788.13
2022-10-19T01:24:43.359Z,97790.56
2022-10-19T01:27:31.204Z,97785.03
2022-10-19T01:30:13.182Z,97769.91
2022-10-19T01:33:11.623Z,97785.38
2022-10-19T01:36:03.742Z,97783.03
2022-10-19T01:38:40.957Z,97774.31
2022-10-19T01:41:14.986Z,97773.16
2022-10-19T01:43:50.648Z,97773.94
2022-10-19T01:46:27.392Z,97770.75
2022-10-19T01:49:24.633Z,97760.81
2022-10-19T01:54:34.161Z,97757.28
2022-10-19T01:57:04.879Z,97753.38
2022-10-19T01:59:33.073Z,97762.16
2022-10-19T02:02:02.045Z,97755.41
2022-10-19T02:04:28.837Z,97757.38
2022-10-19T02:06:55.841Z,97757.38
2022-10-19T02:09:22.606Z,97759.75
2022-10-19T02:11:57.591Z,97754.63
2022-10-19T02:14:29.491Z,97762.13
2022-10-19T02:17:15.938Z,97763.78
2022-10-19T02:19:43.420Z,97754.66
2022-10-19T02:22:11.667Z,97750.34
2022-10-19T02:24:38.317Z,97755.09
2022-10-19T02:27:06.765Z,97748.75
2022-10-19T02:29:34.817Z,97743.22
2022-10-19T02:32:02.298Z,97742.44
2022-10-19T02:34:29.621Z,97748.34
2022-10-19T02:36:56.072Z,97753.88
2022-10-19T02:39:23.422Z,97748.72
2022-10-19T02:41:49.782Z,97751.13
2022-10-19T02:44:25.340Z,97749.91
2022-10-19T02:47:18.348Z,97754.28
2022-10-19T02:49:45.517Z,97746.34
2022-10-19T02:52:13.539Z,97750.72
2022-10-19T02:54:42.655Z,97755.47
2022-10-19T02:57:25.954Z,97754.28
2022-10-19T02:59:53.094Z,97751.94
2022-10-19T03:02:21.406Z,97756.69
2022-10-19T03:07:21.401Z,97760.66
2022-10-19T03:09:47.996Z,97756.28
2022-10-19T03:12:15.315Z,97747.97
2022-10-19T03:14:42.406Z,97752.34
2022-10-19T03:17:09.834Z,97762.25
2022-10-19T03:19:36.630Z,97753.16
2022-10-19T03:22:03.472Z,97753.53
2022-10-19T03:24:30.505Z,97747.97
2022-10-19T03:26:57.175Z,97734.91
2022-10-19T03:29:23.838Z,97740.06
2022-10-19T03:31:50.547Z,97741.66
2022-10-19T03:34:17.404Z,97743.22
2022-10-19T03:36:43.992Z,97754.34
2022-10-19T03:39:12.937Z,97749.16
2022-10-19T03:41:40.204Z,97746.38
2022-10-19T03:44:08.403Z,97750.38
2022-10-19T03:46:35.725Z,97751.94
2022-10-19T03:49:02.555Z,97754.31
2022-10-19T03:51:31.170Z,97753.53
2022-10-19T03:54:00.378Z,97755.13
2022-10-19T03:56:28.998Z,97745.63
2022-10-19T03:58:57.249Z,97747.19
2022-10-19T04:01:32.707Z,97745.63
2022-10-19T04:04:01.891Z,97741.63
2022-10-19T04:06:31.273Z,97744.03
2022-10-19T04:08:58.642Z,97745.59
2022-10-19T04:11:26.842Z,97741.63
2022-10-19T04:13:54.624Z,97741.66
2022-10-19T04:16:22.339Z,97749.56
2022-10-19T04:18:49.163Z,97743.22
2022-10-19T04:21:24.835Z,97736.50
2022-10-19T04:23:53.358Z,97747.97
2022-10-19T04:26:20.543Z,97743.22
2022-10-19T04:28:47.302Z,97744.03
2022-10-19T04:31:14.128Z,97740.06
2022-10-19T04:33:41.317Z,97748.38
2022-10-19T04:36:10.631Z,97745.19
2022-10-19T04:38:37.749Z,97740.44
2022-10-19T04:41:10.501Z,97740.84
2022-10-19T04:43:37.992Z,97742.41
2022-10-19T04:46:09.891Z,97748.75
2022-10-19T04:48:38.383Z,97749.16
2022-10-19T04:51:05.691Z,97741.59
2022-10-19T04:53:32.451Z,97746.38
2022-10-19T04:55:59.216Z,97747.56
2022-10-19T04:58:26.155Z,97740.03
2022-10-19T05:00:52.739Z,97747.88
2022-10-19T05:03:19.320Z,97744.28
2022-10-19T05:05:45.856Z,97744.72
2022-10-19T05:08:12.565Z,97735.19
2022-10-19T05:10:39.918Z,97738.28
2022-10-19T05:13:07.115Z,97734.75
2022-10-19T05:15:33.687Z,97734.72
2022-10-19T05:18:00.311Z,97736.72
2022-10-19T05:20:27.338Z,97738.34
2022-10-19T05:22:53.882Z,97732.03
2022-10-19T05:25:20.430Z,97743.16
2022-10-19T05:27:51.187Z,97728.13
2022-10-19T05:30:17.865Z,97731.31
2022-10-19T05:32:44.430Z,97739.22
2022-10-19T05:35:11.039Z,97740.75
2022-10-19T05:37:37.743Z,97742.34
2022-10-19T05:40:04.880Z,97736.81
2022-10-19T05:42:31.458Z,97743.16
2022-10-19T05:44:57.948Z,97735.28
2022-10-19T05:47:27.364Z,97737.69
2022-10-19T05:49:56.795Z,97739.69
2022-10-19T05:52:23.372Z,97737.66
2022-10-19T05:54:50.029Z,97735.16
2022-10-19T05:57:16.552Z,97730.19
2022-10-19T05:59:43.148Z,97732.22
2022-10-19T06:02:14.185Z,97726.31
2022-10-19T06:04:40.743Z,97726.00
2022-10-19T06:07:07.361Z,97730.72
2022-10-19T06:09:36.327Z,97719.50
2022-10-19T06:12:03.762Z,97713.06
2022-10-19T06:14:30.228Z,97725.84
2022-10-19T06:16:56.964Z,97723.09
2022-10-19T06:19:23.478Z,97728.06
2022-10-19T06:21:50.012Z,97730.06
2022-10-19T06:24:16.619Z,97728.03
2022-10-19T06:26:43.208Z,97721.59
2022-10-19T06:29:10.066Z,97725.22
2022-10-19T06:31:36.724Z,97716.44
2022-10-19T06:34:03.443Z,97716.50
2022-10-19T06:36:31.286Z,97717.09
2022-10-19T06:38:59.836Z,97712.78
2022-10-19T06:41:26.465Z,97711.19
2022-10-19T06:43:54.202Z,97722.78
2022-10-19T06:46:23.494Z,97717.66
2022-10-19T06:48:54.771Z,97714.31
2022-10-19T06:51:22.212Z,97701.81
2022-10-19T06:53:51.673Z,97709.03
2022-10-19T06:56:24.537Z,97703.16
2022-10-19T06:58:51.132Z,97692.19
2022-10-19T07:01:18.299Z,97696.72
2022-10-19T07:03:44.954Z,97695.81
2022-10-19T07:06:13.181Z,97689.94
2022-10-19T07:08:41.811Z,97694.84
2022-10-19T07:11:11.034Z,97687.97
2022-10-19T07:13:37.693Z,97680.59
2022-10-19T07:16:08.032Z,97679.88
2022-10-19T07:18:36.191Z,97676.66
2022-10-19T07:21:06.023Z,97673.97
2022-10-19T07:23:34.340Z,97661.50
2022-10-19T07:26:09.815Z,97657.53
2022-10-19T07:28:36.366Z,97659.19
2022-10-19T07:31:08.213Z,97662.28
2022-10-19T07:33:35.170Z,97643.75
2022-10-19T07:36:03.924Z,97644.16
2022-10-19T07:38:31.917Z,97624.50
2022-10-19T07:41:18.574Z,97629.25
2022-10-19T07:43:46.883Z,97633.47
2022-10-19T07:46:16.315Z,97634.31
2022-10-19T07:48:43.849Z,97626.47
2022-10-19T07:51:12.110Z,97621.16
2022-10-19T07:53:39.512Z,97617.97
2022-10-19T07:56:07.302Z,97621.59
2022-10-19T07:58:34.549Z,97599.28
2022-10-19T08:01:03.606Z,97616.63
2022-10-19T08:06:19.064Z,97601.59
2022-10-19T08:08:47.256Z,97597.94
2022-10-19T08:11:17.531Z,97623.06
2022-10-19T08:13:44.829Z,97631.06
2022-10-19T08:16:25.538Z,97639.59
2022-10-19T08:18:56.105Z,97632.41
2022-10-19T08:21:23.014Z,97633.94
2022-10-19T08:23:49.681Z,97632.91
2022-10-19T08:26:16.520Z,97637.31
2022-10-19T08:28:43.084Z,97632.97
2022-10-19T08:31:15.763Z,97621.81
2022-10-19T08:33:43.038Z,97622.53
2022-10-19T08:36:10.378Z,97614.72
2022-10-19T08:38:37.963Z,97614.97
2022-10-19T08:41:20.791Z,97608.22
2022-10-19T08:44:05.100Z,97608.47
2022-10-19T08:46:43.005Z,97604.47
2022-10-19T08:49:15.881Z,97602.63
2022-10-19T08:51:46.070Z,97601.47
2022-10-19T08:54:17.552Z,97594.88
2022-10-19T08:57:11.235Z,97595.66
2022-10-19T08:59:48.739Z,97581.16
2022-10-19T09:02:42.247Z,97582.25
2022-10-19T09:06:01.274Z,97584.84
2022-10-19T09:08:28.453Z,97575.22
2022-10-19T09:10:55.317Z,97574.81
2022-10-19T09:13:41.486Z,97570.47
2022-10-19T09:16:20.024Z,97575.22
2022-10-19T09:18:50.698Z,97567.16
2022-10-19T09:21:28.179Z,97570.13
2022-10-19T09:24:19.210Z,97559.47
2022-10-19T09:26:55.262Z,97553.56
2022-10-19T09:29:32.180Z,97540.34
2022-10-19T09:32:01.615Z,97539.00
2022-10-19T09:34:43.582Z,97540.06
2022-10-19T09:37:20.070Z,97540.84
2022-10-19T09:39:54.128Z,97537.22
2022-10-19T09:42:30.414Z,97530.75
2022-10-19T09:45:00.898Z,97528.34
2022-10-19T09:47:38.196Z,97533.97
2022-10-19T09:50:25.872Z,97516.00
2022-10-19T09:52:57.495Z,97505.63
2022-10-19T09:55:29.939Z,97514.78
2022-10-19T09:58:05.776Z,97508.75
2022-10-19T10:00:36.980Z,97504.81
2022-10-19T10:03:06.098Z,97497.66
2022-10-19T10:05:40.735Z,97492.19
2022-10-19T10:08:18.119Z,97489.41
2022-10-19T10:10:56.587Z,97477.56
2022-10-19T10:13:25.991Z,97472.31
2022-10-19T10:16:06.082Z,97476.50
2022-10-19T10:18:38.502Z,97461.63
2022-10-19T10:21:14.702Z,97457.00
2022-10-19T10:23:41.378Z,97449.78
2022-10-19T10:26:17.875Z,97451.00
2022-10-19T10:28:50.115Z,97440.84
2022-10-19T10:31:22.678Z,97441.59
2022-10-19T10:34:10.886Z,97441.28
2022-10-19T10:36:54.014Z,97429.44
2022-10-19T10:39:20.856Z,97410.31
2022-10-19T10:41:49.090Z,97412.44
2022-10-19T10:44:23.450Z,97403.13
2022-10-19T10:46:51.918Z,97401.56
2022-10-19T10:49:25.265Z,97388.66
2022-10-19T10:51:56.843Z,97389.19
2022-10-19T10:54:31.289Z,97370.84
2022-10-19T10:57:15.688Z,97375.28
2022-10-19T11:00:03.669Z,97363.13
2022-10-19T11:03:00.785Z,97352.53
2022-10-19T11:05:49.791Z,97353.59
2022-10-19T11:08:31.976Z,97344.78
2022-10-19T11:11:19.749Z,97337.00
2022-10-19T11:13:53.056Z,97333.09
2022-10-19T11:16:41.989Z,97329.41
2022-10-19T11:19:25.742Z,97318.22
2022-10-19T11:22:05.691Z,97317.69
2022-10-19T11:24:48.729Z,97303.81
2022-10-19T11:27:52.390Z,97295.00
2022-10-19T11:30:22.225Z,97301.41
2022-10-19T11:33:07.021Z,97286.84
2022-10-19T11:35:55.009Z,97275.91
2022-10-19T11:38:40.077Z,97285.66
2022-10-19T11:41:18.226Z,97271.47
2022-10-19T11:43:51.175Z,97262.66
2022-10-19T11:46:29.839Z,97258.16
2022-10-19T11:49:05.118Z,97251.59
2022-10-19T11:51:35.683Z,97252.38
2022-10-19T11:54:33.240Z,97248.97
2022-10-19T11:57:16.235Z,97238.88
2022-10-19T12:00:15.370Z,97240.41
2022-10-19T12:03:12.486Z,97234.25
2022-10-19T12:05:41.759Z,97233.97
2022-10-19T12:08:14.085Z,97233.81
2022-10-19T12:10:52.936Z,97234.59
2022-10-19T12:13:27.406Z,97228.78
2022-10-19T12:15:56.494Z,97220.03
2022-10-19T12:18:31.855Z,97221.28
2022-10-19T12:21:02.393Z,97207.97
2022-10-19T12:23:32.984Z,97211.19
2022-10-19T12:26:03.211Z,97217.84
2022-10-19T12:28:34.187Z,97216.75
2022-10-19T12:31:02.598Z,97214.91
2022-10-19T12:33:37.051Z,97210.00
2022-10-19T12:36:13.753Z,97209.16
2022-10-19T12:39:00.058Z,97202.97
2022-10-19T12:41:31.646Z,97210.06
2022-10-19T12:44:28.614Z,97200.34
2022-10-19T12:47:10.430Z,97185.78
2022-10-19T12:49:44.429Z,97194.16
2022-10-19T12:52:12.666Z,97189.50
2022-10-19T12:54:41.391Z,97188.75
2022-10-19T12:57:25.908Z,97195.69
2022-10-19T13:00:00.663Z,97185.63
2022-10-19T13:02:34.135Z,97191.47
2022-10-19T13:05:01.588Z,97183.19
2022-10-19T13:07:36.661Z,97181.63
2022-10-19T13:10:07.181Z,97174.50
2022-10-19T13:12:46.229Z,97183.09
2022-10-19T13:15:34.556Z,97178.38
2022-10-19T13:18:16.808Z,97171.41
2022-10-19T13:20:51.748Z,97175.19
2022-10-19T13:23:18.411Z,97178.94
2022-10-19T13:25:44.955Z,97163.50
2022-10-19T13:28:12.784Z,97166.81
2022-10-19T13:30:39.365Z,97174.97
2022-10-19T13:33:31.404Z,97164.78
2022-10-19T13:36:00.758Z,97169.50
2022-10-19T13:38:41.196Z,97169.34
2022-10-19T13:41:15.517Z,97172.97
2022-10-19T13:44:12.061Z,97163.44
2022-10-19T13:46:44.394Z,97161.34
2022-10-19T13:49:10.863Z,97157.94
2022-10-19T13:51:56.127Z,97153.31
2022-10-19T13:54:43.656Z,97164.31
2022-10-19T13:57:33.663Z,97156.13
2022-10-19T14:00:21.883Z,97147.59
2022-10-19T14:02:57.241Z,97158.66
2022-10-19T14:05:42.306Z,97153.47
2022-10-19T14:08:33.379Z,97152.22
2022-10-19T14:11:26.342Z,97156.13
2022-10-19T14:14:10.883Z,97144.19
2022-10-19T14:17:01.426Z,97135.53
2022-10-19T14:19:33.183Z,97140.19
2022-10-19T14:22:18.763Z,97140.66
2022-10-19T14:24:45.497Z,97135.69
2022-10-19T14:27:18.805Z,97133.69
2022-10-19T14:29:48.027Z,97137.94
2022-10-19T14:32:15.046Z,97131.91
2022-10-19T14:34:47.302Z,97138.00
2022-10-19T14:37:22.613Z,97131.75
2022-10-19T14:40:05.260Z,97128.66
2022-10-19T14:42:44.052Z,97125.41
2022-10-19T14:45:24.386Z,97125.66
2022-10-19T14:48:02.328Z,97127.72
2022-10-19T14:50:55.043Z,97128.97
2022-10-19T14:53:41.910Z,97129.31
2022-10-19T14:56:10.892Z,97134.88
2022-10-19T14:58:44.408Z,97142.69
2022-10-19T15:01:12.267Z,97141.00
2022-10-19T15:03:43.649Z,97142.56
2022-10-19T15:06:17.885Z,97139.81
2022-10-19T15:08:49.930Z,97129.44
2022-10-19T15:11:39.707Z,97141.97
2022-10-19T15:14:14.450Z,97143.03
2022-10-19T15:16:49.818Z,97141.00
2022-10-19T15:19:32.363Z,97146.00
2022-10-19T15:22:14.132Z,97149.09
2022-10-19T15:25:02.078Z,97152.25
2022-10-19T15:27:34.592Z,97153.09
2022-10-19T15:30:19.469Z,97155.16
2022-10-19T15:32:48.960Z,97163.19
2022-10-19T15:35:24.356Z,97157.78
2022-10-19T15:37:51.452Z,97163.25
2022-10-19T15:40:44.429Z,97174.66
2022-10-19T15:43:35.994Z,97182.66
2022-10-19T15:46:20.108Z,97189.94
2022-10-19T15:48:52.349Z,97188.63
2022-10-19T15:51:24.729Z,97192.50
2022-10-19T15:53:57.448Z,97203.13
2022-10-19T15:56:26.002Z,97204.66
2022-10-19T15:58:54.864Z,97196.63
2022-10-19T16:01:26.115Z,97198.47
2022-10-19T16:03:53.710Z,97204.41
2022-10-19T16:06:22.445Z,97204.66
2022-10-19T16:08:51.212Z,97217.63
2022-10-19T16:11:20.028Z,97220.94
2022-10-19T16:13:47.247Z,97233.09
2022-10-19T16:16:29.201Z,97232.28
2022-10-19T16:18:56.528Z,97241.13
2022-10-19T16:21:25.553Z,97244.69
2022-10-19T16:23:52.290Z,97251.16
2022-10-19T16:26:19.383Z,97244.09
2022-10-19T16:28:45.938Z,97255.91
2022-10-19T16:31:12.672Z,97264.66
2022-10-19T16:33:39.185Z,97273.81
2022-10-19T16:36:07.533Z,97281.81
2022-10-19T16:38:34.775Z,97286.09
2022-10-19T16:41:03.333Z,97283.25
2022-10-19T16:43:30.421Z,97292.25
2022-10-19T16:45:57.486Z,97291.75
2022-10-19T16:48:25.419Z,97296.06
2022-10-19T16:51:24.351Z,97300.38
2022-10-19T16:53:53.709Z,97311.75
2022-10-19T16:56:20.612Z,97307.66
2022-10-19T16:58:47.271Z,97317.00
2022-10-19T17:01:17.090Z,97326.28
2022-10-19T17:03:44.851Z,97336.06
2022-10-19T17:06:12.451Z,97339.34
2022-10-19T17:09:02.674Z,97336.69
2022-10-19T17:11:29.563Z,97352.13
2022-10-19T17:13:58.507Z,97356.03
2022-10-19T17:16:26.327Z,97355.91
2022-10-19T17:18:55.261Z,97355.28
2022-10-19T17:21:24.285Z,97353.75
2022-10-19T17:23:59.277Z,97354.34
2022-10-19T17:26:28.130Z,97356.69
2022-10-19T17:28:55.817Z,97365.28
2022-10-19T17:31:22.700Z,97358.69
2022-10-19T17:33:49.841Z,97358.22
2022-10-19T17:36:19.238Z,97368.31
2022-10-19T17:38:46.670Z,97382.13
2022-10-19T17:41:14.673Z,97376.69
2022-10-19T17:43:43.225Z,97379.66
2022-10-19T17:46:12.037Z,97376.69
2022-10-19T17:48:40.428Z,97373.00
2022-10-19T17:51:10.986Z,97376.81
2022-10-19T17:53:37.599Z,97380.22
2022-10-19T17:56:06.818Z,97381.56
2022-10-19T17:58:39.033Z,97376.56
2022-10-19T18:01:08.729Z,97371.81
2022-10-19T18:03:36.410Z,97376.13
2022-10-19T18:06:09.648Z,97391.13
2022-10-19T18:08:41.006Z,97378.63
2022-10-19T18:11:14.511Z,97389.03
2022-10-19T18:13:41.696Z,97378.53
2022-10-19T18:16:13.958Z,97384.50
2022-10-19T18:19:19.104Z,97383.50
2022-10-19T18:21:47.423Z,97386.44
2022-10-19T18:24:19.669Z,97385.97
2022-10-19T18:26:47.463Z,97386.44
2022-10-19T18:29:20.422Z,97393.69
2022-10-19T18:31:52.317Z,97388.31
2022-10-19T18:34:22.543Z,97390.56
2022-10-19T18:36:50.121Z,97394.94
2022-10-19T18:39:17.022Z,97397.19
2022-10-19T18:41:43.692Z,97404.25
2022-10-19T18:44:13.182Z,97399.25
2022-10-19T18:46:39.980Z,97398.97
2022-10-19T18:49:08.670Z,97414.19
2022-10-19T18:51:36.079Z,97404.03
2022-10-19T18:54:02.559Z,97418.50
2022-10-19T18:56:33.509Z,97420.16
2022-10-19T18:59:00.110Z,97426.91
2022-10-19T19:01:28.534Z,97419.66
2022-10-19T19:03:57.631Z,97437.22
2022-10-19T19:06:29.438Z,97437.47
2022-10-19T19:09:00.549Z,97438.53
2022-10-19T19:11:31.832Z,97450.81
2022-10-19T19:14:21.239Z,97452.38
2022-10-19T19:16:47.856Z,97450.50
2022-10-19T19:19:16.081Z,97459.00
2022-10-19T19:21:44.471Z,97458.47
2022-10-19T19:24:14.809Z,97456.00
2022-10-19T19:26:46.765Z,97463.31
2022-10-19T19:29:15.597Z,97469.97
2022-10-19T19:31:42.199Z,97473.09
2022-10-19T19:34:11.899Z,97476.56
2022-10-19T19:39:18.836Z,97492.66
2022-10-19T19:41:46.076Z,97499.94
2022-10-19T19:44:12.611Z,97491.50
2022-10-19T19:46:39.165Z,97499.84
2022-10-19T19:49:05.894Z,97516.88
2022-10-19T19:51:33.438Z,97507.78
2022-10-19T19:54:00.065Z,97511.88
2022-10-19T19:56:26.867Z,97523.31
2022-10-19T19:58:59.056Z,97519.38
2022-10-19T20:01:25.799Z,97520.81
2022-10-19T20:03:52.590Z,97523.66
2022-10-19T20:06:23.509Z,97531.50
2022-10-19T20:08:52.674Z,97532.56
2022-10-19T20:11:19.305Z,97532.13
2022-10-19T20:13:45.995Z,97536.19
2022-10-19T20:16:15.326Z,97534.94
2022-10-19T20:18:44.870Z,97540.09
2022-10-19T20:21:12.033Z,97541.53
2022-10-19T20:23:38.715Z,97542.78
2022-10-19T20:26:05.399Z,97545.59
2022-10-19T20:28:33.156Z,97548.41
2022-10-19T20:31:05.880Z,97543.88
2022-10-19T20:33:34.706Z,97554.03
2022-10-19T20:36:14.285Z,97542.09
2022-10-19T20:38:46.017Z,97544.28
2022-10-19T20:41:12.537Z,97543.66
2022-10-19T20:43:39.174Z,97544.25
2022-10-19T20:46:12.546Z,97545.00
2022-10-19T20:48:40.282Z,97539.84
2022-10-19T20:51:14.699Z,97540.09
2022-10-19T20:53:42.575Z,97535.69
2022-10-19T20:56:10.812Z,97531.91
2022-10-19T20:58:43.230Z,97534.03
2022-10-19T21:01:10.953Z,97538.13
2022-10-19T21:03:37.888Z,97543.94
2022-10-19T21:06:08.709Z,97541.63
2022-10-19T21:08:36.113Z,97553.69
2022-10-19T21:11:11.398Z,97560.19
2022-10-19T21:13:37.928Z,97559.78
2022-10-19T21:16:09.259Z,97567.34
2022-10-19T21:18:35.943Z,97570.66
2022-10-19T21:21:11.475Z,97556.25
2022-10-19T21:23:38.224Z,97564.09
2022-10-19T21:26:04.796Z,97571.31
2022-10-19T21:28:31.455Z,97568.47
2022-10-19T21:31:02.616Z,97565.94
2022-10-19T21:33:29.179Z,97567.69
2022-10-19T21:35:55.797Z,97569.41
2022-10-19T21:38:22.329Z,97570.34
2022-10-19T21:40:48.876Z,97569.09
2022-10-19T21:43:15.379Z,97567.53
2022-10-19T21:45:41.903Z,97564.06
2022-10-19T21:48:08.407Z,97574.53
2022-10-19T21:50:34.914Z,97569.69
2022-10-19T21:53:01.467Z,97572.50
2022-10-19T21:55:29.669Z,97575.66
2022-10-19T21:57:56.179Z,97576.91
2022-10-19T22:00:22.711Z,97580.41
2022-10-19T22:02:49.228Z,97583.50
2022-10-19T22:05:15.811Z,97581.16
2022-10-19T22:07:42.332Z,97583.50
2022-10-19T22:10:09.358Z,97586.97
2022-10-19T22:12:36.031Z,97581.94
2022-10-19T22:15:02.713Z,97589.78
2022-10-19T22:17:29.259Z,97589.16
2022-10-19T22:19:55.756Z,97589.44
2022-10-19T22:22:22.324Z,97585.53
2022-10-19T22:24:48.856Z,97584.09
2022-10-19T22:27:15.445Z,97585.94
2022-10-19T22:29:41.984Z,97588.75
2022-10-19T22:32:08.533Z,97586.88
2022-10-19T22:34:35.038Z,97578.06
2022-10-19T22:37:01.600Z,97589.59
2022-10-19T22:39:30.046Z,97588.66
2022-10-19T22:42:52.678Z,97591.25
2022-10-19T22:46:15.224Z,97596.75
2022-10-19T22:49:38.088Z,97594.41
2022-10-19T22:52:57.349Z,97600.16
2022-10-19T22:55:24.037Z,97596.69
2022-10-19T22:57:50.596Z,97582.59
2022-10-19T23:00:17.157Z,97584.44
2022-10-19T23:02:43.677Z,97593.22
2022-10-19T23:05:10.174Z,97594.72
2022-10-19T23:07:38.224Z,97592.84
2022-10-19T23:10:06.038Z,97587.31
2022-10-19T23:12:32.582Z,97595.09
2022-10-19T23:14:59.089Z,97599.28
2022-10-19T23:17:25.587Z,97605.25
2022-10-19T23:19:52.072Z,97598.50
2022-10-19T23:22:18.564Z,97599.94
2022-10-19T23:24:45.072Z,97596.88
2022-10-19T23:27:13.495Z,97603.72
2022-10-19T23:29:40.064Z,97599.38
2022-10-19T23:32:06.811Z,97604.91
2022-10-19T23:37:04.730Z,97604.09
2022-10-19T23:39:31.284Z,97602.50
2022-10-19T23:41:57.851Z,97600.13
2022-10-19T23:44:24.428Z,97605.81
2022-10-19T23:46:50.967Z,97594.97
2022-10-19T23:49:17.500Z,97599.03
2022-10-19T23:51:44.052Z,97591.97
2022-10-19T23:54:10.536Z,97600.47
2022-10-19T23:56:37.055Z,97593.41
2022-10-19T23:59:05.307Z,97602.97
